Time;durP1;ratioP1;P1;durP2;ratioP2;P2;SDS_P1;SDS_P2;PMS_P1;PMS_P2;Temp;Humidity;BMP_temperature;BMP_pressure;BME280_temperature;BME280_humidity;BME280_pressure;Samples;Min_cycle;Max_cycle;Signal;HPM_P1;HPM_P2
2023/08/12 00:00:55;;;;;;;10.27;2.92;;;18.80;99.90;;;;;;4844503;29;20050;-55
2023/08/12 00:03:21;;;;;;;9.18;2.70;;;18.70;99.90;;;;;;4845024;29;20114;-54
2023/08/12 00:05:48;;;;;;;9.68;3.00;;;18.70;99.90;;;;;;4844678;29;20065;-55
2023/08/12 00:08:15;;;;;;;10.10;2.75;;;18.70;99.90;;;;;;4844905;29;20105;-55
2023/08/12 00:10:43;;;;;;;10.02;2.85;;;18.70;99.90;;;;;;4844257;29;20046;-53
2023/08/12 00:13:10;;;;;;;8.57;2.40;;;18.70;99.90;;;;;;4844331;29;20050;-49
2023/08/12 00:15:37;;;;;;;9.02;3.58;;;18.70;99.90;;;;;;4844599;29;20053;-49
2023/08/12 00:18:06;;;;;;;10.00;2.78;;;18.70;99.90;;;;;;4844658;29;20390;-55
2023/08/12 00:20:33;;;;;;;11.98;2.80;;;18.60;99.90;;;;;;4844233;29;20127;-55
2023/08/12 00:23:00;;;;;;;8.63;2.47;;;18.60;99.90;;;;;;4844660;29;20045;-51
2023/08/12 00:25:26;;;;;;;10.73;2.38;;;18.60;99.90;;;;;;4844640;29;20133;-54
2023/08/12 00:27:53;;;;;;;8.57;2.60;;;18.60;99.90;;;;;;4844319;29;20098;-49
2023/08/12 00:30:20;;;;;;;9.07;3.35;;;18.60;99.90;;;;;;4858161;29;20050;-53
2023/08/12 00:32:47;;;;;;;7.97;2.97;;;18.60;99.90;;;;;;4844441;29;20098;-54
2023/08/12 00:35:13;;;;;;;9.18;2.70;;;18.60;99.90;;;;;;4857765;29;20058;-56
2023/08/12 00:37:40;;;;;;;8.07;3.13;;;18.60;99.90;;;;;;4825838;29;20046;-51
2023/08/12 00:40:08;;;;;;;9.15;3.10;;;18.60;99.90;;;;;;4839938;29;20050;-52
2023/08/12 00:42:35;;;;;;;9.05;2.45;;;18.60;99.90;;;;;;4839601;29;20472;-50
2023/08/12 00:45:02;;;;;;;11.05;2.80;;;18.60;99.90;;;;;;4839686;29;20057;-52
2023/08/12 00:47:30;;;;;;;7.13;2.70;;;18.60;99.90;;;;;;4839761;29;20074;-52
2023/08/12 00:49:58;;;;;;;8.02;2.58;;;18.50;99.90;;;;;;4839761;29;20471;-53
2023/08/12 00:52:25;;;;;;;8.98;2.55;;;18.50;99.90;;;;;;4825877;29;20050;-54
2023/08/12 00:54:52;;;;;;;5.85;2.30;;;18.50;99.90;;;;;;4825715;29;20471;-50
2023/08/12 00:57:18;;;;;;;12.40;3.95;;;18.50;99.90;;;;;;4825126;29;20482;-53
2023/08/12 00:59:45;;;;;;;8.82;3.17;;;18.50;99.90;;;;;;4825263;29;20058;-54
2023/08/12 01:02:12;;;;;;;11.52;3.00;;;18.40;99.90;;;;;;4840449;29;21306;-53
2023/08/12 01:04:40;;;;;;;7.50;2.28;;;18.40;99.90;;;;;;4839649;29;20061;-53
2023/08/12 01:07:06;;;;;;;9.80;2.60;;;18.40;99.90;;;;;;4844164;29;20097;-52
2023/08/12 01:09:33;;;;;;;7.78;2.85;;;18.40;99.90;;;;;;4840303;29;20050;-56
2023/08/12 01:12:00;;;;;;;6.00;2.55;;;18.30;99.90;;;;;;4841669;29;20551;-52
2023/08/12 01:14:28;;;;;;;7.35;2.60;;;18.30;99.90;;;;;;4843211;29;20102;-54
2023/08/12 01:16:54;;;;;;;8.02;2.45;;;18.30;99.90;;;;;;4843425;29;20486;-52
2023/08/12 01:19:24;;;;;;;11.13;2.60;;;18.20;99.90;;;;;;4857402;29;20501;-50
2023/08/12 01:21:50;;;;;;;7.95;2.35;;;18.20;99.90;;;;;;4842922;29;20050;-53
2023/08/12 01:24:17;;;;;;;8.77;2.80;;;18.20;99.90;;;;;;4843633;29;20050;-53
2023/08/12 01:26:44;;;;;;;10.50;3.40;;;18.10;99.90;;;;;;4843134;29;20467;-55
2023/08/12 01:29:12;;;;;;;7.45;2.88;;;18.10;99.90;;;;;;4857378;29;20137;-51
2023/08/12 01:31:39;;;;;;;10.30;2.80;;;18.10;99.90;;;;;;4848472;29;20105;-55
2023/08/12 01:34:05;;;;;;;9.90;3.45;;;18.10;99.90;;;;;;4861527;29;20508;-53
2023/08/12 01:36:32;;;;;;;9.95;3.30;;;18.10;99.90;;;;;;4850500;29;20110;-50
2023/08/12 01:38:59;;;;;;;8.38;3.13;;;18.10;99.90;;;;;;4843202;29;20163;-52
2023/08/12 01:41:30;;;;;;;9.32;2.80;;;18.10;99.90;;;;;;4843370;29;20050;-51
2023/08/12 01:43:57;;;;;;;7.72;2.67;;;18.00;99.90;;;;;;4856597;29;20095;-51
2023/08/12 01:46:24;;;;;;;9.60;3.47;;;18.00;99.90;;;;;;4842993;29;20053;-55
2023/08/12 01:48:51;;;;;;;10.38;2.88;;;18.00;99.90;;;;;;4841488;29;20518;-53
2023/08/12 01:51:17;;;;;;;9.30;3.00;;;18.00;99.90;;;;;;4857203;29;20050;-51
2023/08/12 01:53:44;;;;;;;9.10;3.40;;;17.90;99.90;;;;;;4857144;29;20057;-52
2023/08/12 01:56:11;;;;;;;10.02;2.80;;;17.90;99.90;;;;;;4856508;29;20069;-52
2023/08/12 01:58:38;;;;;;;8.02;2.80;;;17.90;99.90;;;;;;4856853;29;20046;-51
2023/08/12 02:01:06;;;;;;;8.20;2.67;;;17.90;99.90;;;;;;4853687;29;20514;-52
2023/08/12 02:03:33;;;;;;;10.35;3.03;;;17.90;99.90;;;;;;4849533;29;20049;-54
2023/08/12 02:06:00;;;;;;;9.45;3.13;;;17.90;99.90;;;;;;4832413;29;20046;-52
2023/08/12 02:08:27;;;;;;;13.90;3.08;;;17.80;99.90;;;;;;4833249;29;20437;-54
2023/08/12 02:10:53;;;;;;;9.18;2.97;;;17.70;99.90;;;;;;4841144;29;20046;-51
2023/08/12 02:13:21;;;;;;;7.00;2.80;;;17.70;99.90;;;;;;4839506;29;20068;-53
2023/08/12 02:15:48;;;;;;;8.95;2.90;;;17.60;99.90;;;;;;4841658;29;20566;-52
2023/08/12 02:18:15;;;;;;;10.77;3.47;;;17.60;99.90;;;;;;4836582;29;20173;-55
2023/08/12 02:20:42;;;;;;;9.00;3.00;;;17.60;99.90;;;;;;4849686;29;20070;-53
2023/08/12 02:23:09;;;;;;;8.60;3.10;;;17.60;99.90;;;;;;4835015;29;20052;-50
2023/08/12 02:25:35;;;;;;;11.73;3.22;;;17.50;99.90;;;;;;4849597;29;20128;-48
2023/08/12 02:28:02;;;;;;;9.45;2.90;;;17.50;99.90;;;;;;4845762;29;20372;-52
2023/08/12 02:30:29;;;;;;;9.05;3.17;;;17.40;99.90;;;;;;4833808;29;20065;-51
2023/08/12 02:32:57;;;;;;;9.70;3.22;;;17.40;99.90;;;;;;4831927;29;20043;-51
2023/08/12 02:35:23;;;;;;;7.65;3.05;;;17.30;99.90;;;;;;4831957;29;20038;-49
2023/08/12 02:37:50;;;;;;;10.02;3.45;;;17.20;99.90;;;;;;4833423;29;20049;-55
2023/08/12 02:40:17;;;;;;;8.32;3.50;;;17.20;99.90;;;;;;4833027;29;20046;-48
2023/08/12 02:42:44;;;;;;;9.60;3.30;;;17.10;99.90;;;;;;4831954;29;20113;-49
2023/08/12 02:45:10;;;;;;;10.93;3.42;;;17.10;99.90;;;;;;4833572;29;20125;-50
2023/08/12 02:47:37;;;;;;;8.00;3.00;;;17.00;99.90;;;;;;4846759;29;20052;-51
2023/08/12 02:50:04;;;;;;;11.27;4.07;;;16.90;99.90;;;;;;4846063;29;20538;-54
2023/08/12 02:52:31;;;;;;;8.77;3.95;;;16.90;99.90;;;;;;4833558;29;20406;-52
2023/08/12 02:54:58;;;;;;;7.78;3.78;;;16.90;99.90;;;;;;4832960;29;20039;-51
2023/08/12 02:57:25;;;;;;;12.85;4.07;;;16.80;99.90;;;;;;4823748;29;20520;-49
2023/08/12 02:59:51;;;;;;;12.25;3.78;;;16.70;99.90;;;;;;4824524;29;20054;-49
2023/08/12 03:02:18;;;;;;;10.35;3.70;;;16.80;99.90;;;;;;4837944;29;20051;-52
2023/08/12 03:04:45;;;;;;;11.55;3.80;;;16.70;99.90;;;;;;4837510;29;20061;-48
2023/08/12 03:07:12;;;;;;;9.48;3.70;;;16.60;99.90;;;;;;4837961;29;20043;-50
2023/08/12 03:09:40;;;;;;;10.38;4.00;;;16.60;99.90;;;;;;4850261;29;20049;-53
2023/08/12 03:12:07;;;;;;;10.13;3.95;;;16.60;99.90;;;;;;4856045;29;20410;-49
2023/08/12 03:14:34;;;;;;;13.55;4.85;;;16.50;99.90;;;;;;4841950;29;20478;-55
2023/08/12 03:17:01;;;;;;;13.00;4.18;;;16.50;99.90;;;;;;4841786;29;20041;-56
2023/08/12 03:19:29;;;;;;;11.82;3.78;;;16.40;99.90;;;;;;4855991;29;20106;-51
2023/08/12 03:21:57;;;;;;;12.10;4.35;;;16.40;99.90;;;;;;4856032;29;20443;-56
2023/08/12 03:24:24;;;;;;;8.07;4.00;;;16.40;99.90;;;;;;4856094;29;20394;-55
2023/08/12 03:26:51;;;;;;;8.95;4.30;;;16.40;99.90;;;;;;4855918;29;20049;-55
2023/08/12 03:29:18;;;;;;;10.77;4.70;;;16.30;99.90;;;;;;4842151;29;20114;-54
2023/08/12 03:31:45;;;;;;;13.45;5.15;;;16.30;99.90;;;;;;4855627;29;20133;-52
2023/08/12 03:34:12;;;;;;;13.27;4.78;;;16.30;99.90;;;;;;4841736;29;20045;-50
2023/08/12 03:36:41;;;;;;;11.60;4.45;;;16.30;99.90;;;;;;4856159;29;20057;-53
2023/08/12 03:39:09;;;;;;;13.77;5.22;;;16.30;99.90;;;;;;4855661;29;20103;-50
2023/08/12 03:41:35;;;;;;;12.48;5.30;;;16.30;99.90;;;;;;4841977;29;20482;-51
2023/08/12 03:44:04;;;;;;;11.25;4.82;;;16.30;99.90;;;;;;4870827;29;20493;-52
2023/08/12 03:46:32;;;;;;;12.25;4.95;;;16.30;99.90;;;;;;4878042;29;20509;-55
2023/08/12 03:48:59;;;;;;;15.88;5.65;;;16.40;99.90;;;;;;4862606;29;20068;-51
2023/08/12 03:51:26;;;;;;;13.43;5.60;;;16.40;99.90;;;;;;4862312;29;20603;-56
2023/08/12 03:53:53;;;;;;;8.60;5.15;;;16.50;99.90;;;;;;4862132;29;20060;-53
2023/08/12 03:56:20;;;;;;;13.45;5.72;;;16.50;99.90;;;;;;4861670;29;20066;-54
2023/08/12 03:58:47;;;;;;;12.63;5.72;;;16.60;99.90;;;;;;4877562;29;20110;-54
2023/08/12 04:01:13;;;;;;;12.90;5.78;;;16.60;99.90;;;;;;4877694;29;20133;-53
2023/08/12 04:03:40;;;;;;;12.48;5.78;;;16.70;99.90;;;;;;4862011;29;20053;-55
2023/08/12 04:06:07;;;;;;;13.40;6.63;;;16.70;99.90;;;;;;4861672;29;20470;-52
2023/08/12 04:08:34;;;;;;;18.52;6.47;;;16.70;99.90;;;;;;4863160;29;20034;-51
2023/08/12 04:11:01;;;;;;;13.57;6.75;;;16.60;99.90;;;;;;4877490;29;20140;-57
2023/08/12 04:13:28;;;;;;;13.38;6.85;;;16.70;99.90;;;;;;4863329;29;20132;-56
2023/08/12 04:15:54;;;;;;;14.88;7.30;;;16.70;99.90;;;;;;4863163;29;20056;-54
2023/08/12 04:18:21;;;;;;;16.25;7.32;;;16.80;99.90;;;;;;4877092;29;20065;-55
2023/08/12 04:20:49;;;;;;;14.80;7.13;;;16.90;99.90;;;;;;4861728;29;20053;-54
2023/08/12 04:23:16;;;;;;;16.17;6.88;;;16.90;99.90;;;;;;4877039;29;20064;-56
2023/08/12 04:25:43;;;;;;;14.93;6.88;;;16.90;99.90;;;;;;4876970;29;20049;-50
2023/08/12 04:28:11;;;;;;;14.90;7.40;;;16.90;99.90;;;;;;4876755;29;20117;-54
2023/08/12 04:30:37;;;;;;;20.63;8.25;;;16.90;99.90;;;;;;4861688;29;20046;-54
2023/08/12 04:33:06;;;;;;;15.40;7.22;;;16.90;99.90;;;;;;4861474;29;20050;-52
2023/08/12 04:35:33;;;;;;;15.63;7.88;;;16.90;99.90;;;;;;4861593;29;20481;-51
2023/08/12 04:38:00;;;;;;;17.25;7.68;;;16.90;99.90;;;;;;4877022;29;20049;-55
2023/08/12 04:40:27;;;;;;;18.15;8.27;;;16.80;99.90;;;;;;4876599;29;20462;-56
2023/08/12 04:42:55;;;;;;;18.27;8.27;;;16.80;99.90;;;;;;4876686;29;20053;-57
2023/08/12 04:45:22;;;;;;;13.90;8.18;;;16.80;99.90;;;;;;4876775;29;20042;-57
2023/08/12 04:47:49;;;;;;;19.27;8.02;;;16.80;99.90;;;;;;4876638;29;20120;-55
2023/08/12 04:50:17;;;;;;;16.35;8.18;;;16.90;99.90;;;;;;4876471;29;20239;-55
2023/08/12 04:52:44;;;;;;;15.75;8.23;;;16.90;99.90;;;;;;4862330;29;20045;-55
2023/08/12 04:55:11;;;;;;;15.23;7.60;;;16.90;99.90;;;;;;4860600;29;20482;-58
2023/08/12 04:57:38;;;;;;;14.52;7.35;;;16.90;99.90;;;;;;4860346;29;20140;-55
2023/08/12 05:00:09;;;;;;;16.30;7.47;;;17.00;99.90;;;;;;4861064;29;20077;-55
2023/08/12 05:02:36;;;;;;;15.65;6.95;;;17.00;99.90;;;;;;4876430;29;20573;-49
2023/08/12 05:05:03;;;;;;;13.75;6.40;;;17.00;99.90;;;;;;4876635;29;20481;-55
2023/08/12 05:07:33;;;;;;;13.98;6.03;;;17.10;99.90;;;;;;4876299;29;20069;-53
2023/08/12 05:10:01;;;;;;;17.00;6.30;;;17.10;99.90;;;;;;4876474;29;20516;-53
2023/08/12 05:12:29;;;;;;;13.88;5.60;;;17.10;99.90;;;;;;4860902;29;20083;-53
2023/08/12 05:14:56;;;;;;;13.95;5.55;;;17.00;99.90;;;;;;4861174;29;20046;-55
2023/08/12 05:17:23;;;;;;;13.90;5.10;;;17.00;99.90;;;;;;4876298;29;20050;-53
2023/08/12 05:19:50;;;;;;;14.13;4.90;;;17.00;99.90;;;;;;4860467;29;20060;-52
2023/08/12 05:22:17;;;;;;;14.43;4.90;;;17.00;99.90;;;;;;4862354;29;20129;-55
2023/08/12 05:24:43;;;;;;;17.73;4.80;;;17.00;99.90;;;;;;4862152;29;20391;-56
2023/08/12 05:27:11;;;;;;;16.25;5.35;;;17.00;99.90;;;;;;4861850;29;20053;-57
2023/08/12 05:29:38;;;;;;;16.85;4.35;;;17.00;99.90;;;;;;4876021;29;20152;-55
2023/08/12 05:32:05;;;;;;;18.17;4.22;;;17.00;99.90;;;;;;4862159;29;20041;-53
2023/08/12 05:34:31;;;;;;;14.38;4.60;;;17.00;99.90;;;;;;4861384;29;20046;-56
2023/08/12 05:36:58;;;;;;;17.60;4.40;;;17.10;99.90;;;;;;4861808;29;20068;-57
2023/08/12 05:39:25;;;;;;;18.40;4.25;;;17.10;99.90;;;;;;4861498;29;20101;-53
2023/08/12 05:41:52;;;;;;;19.05;4.63;;;17.20;99.90;;;;;;4861631;29;20478;-52
2023/08/12 05:44:19;;;;;;;15.75;4.10;;;17.30;99.90;;;;;;4861393;29;20061;-56
2023/08/12 05:46:45;;;;;;;14.90;4.00;;;17.30;99.90;;;;;;4861265;29;20049;-54
2023/08/12 05:49:12;;;;;;;16.63;4.57;;;17.40;99.90;;;;;;4861592;29;20124;-56
2023/08/12 05:51:39;;;;;;;14.65;3.60;;;17.30;99.90;;;;;;4861195;29;20049;-53
2023/08/12 05:54:06;;;;;;;15.05;3.92;;;17.40;99.90;;;;;;4860187;29;20045;-57
2023/08/12 05:56:33;;;;;;;19.25;4.63;;;17.40;99.90;;;;;;4860747;29;20057;-57
2023/08/12 05:59:00;;;;;;;12.05;3.92;;;17.40;99.90;;;;;;4861529;29;20537;-54
2023/08/12 06:01:26;;;;;;;13.20;3.97;;;17.40;99.90;;;;;;4861148;29;20132;-56
2023/08/12 06:03:53;;;;;;;14.27;3.70;;;17.40;99.90;;;;;;4861431;29;20438;-53
2023/08/12 06:06:21;;;;;;;18.02;4.35;;;17.40;99.90;;;;;;4860773;29;20109;-54
2023/08/12 06:08:48;;;;;;;15.10;3.63;;;17.40;99.90;;;;;;4860988;29;20072;-56
2023/08/12 06:11:15;;;;;;;17.73;4.15;;;17.30;99.90;;;;;;4860519;29;20037;-56
2023/08/12 06:13:41;;;;;;;13.48;4.00;;;17.40;99.90;;;;;;4861252;29;20116;-55
2023/08/12 06:16:08;;;;;;;15.13;4.40;;;17.40;99.90;;;;;;4861309;29;20102;-52
2023/08/12 06:18:35;;;;;;;19.17;3.95;;;17.50;99.90;;;;;;4860005;29;20042;-54
2023/08/12 06:21:02;;;;;;;12.73;4.13;;;17.50;99.90;;;;;;4861098;29;20045;-54
2023/08/12 06:23:30;;;;;;;16.83;4.20;;;17.60;99.90;;;;;;4861333;29;20491;-51
2023/08/12 06:25:56;;;;;;;14.73;3.65;;;17.60;99.90;;;;;;4861276;29;20045;-51
2023/08/12 06:28:23;;;;;;;14.20;3.63;;;17.50;99.90;;;;;;4860889;29;20053;-53
2023/08/12 06:30:50;;;;;;;14.27;3.88;;;17.50;99.90;;;;;;4860892;29;20104;-57
2023/08/12 06:33:17;;;;;;;16.65;3.60;;;17.50;99.90;;;;;;4861051;29;20045;-54
2023/08/12 06:35:44;;;;;;;21.77;4.50;;;17.50;99.90;;;;;;4860974;29;20514;-50
2023/08/12 06:38:13;;;;;;;16.02;4.30;;;17.50;99.90;;;;;;4860993;29;20458;-51
2023/08/12 06:40:40;;;;;;;13.00;4.07;;;17.60;99.90;;;;;;4860735;29;20061;-55
2023/08/12 06:43:08;;;;;;;12.85;4.28;;;17.60;99.90;;;;;;4860713;29;20077;-53
2023/08/12 06:45:35;;;;;;;20.10;4.88;;;17.60;99.90;;;;;;4859413;29;20069;-51
2023/08/12 06:48:02;;;;;;;21.13;4.50;;;17.60;99.90;;;;;;4874949;29;20073;-57
2023/08/12 06:50:30;;;;;;;16.20;3.83;;;17.70;99.90;;;;;;4861007;29;20057;-54
2023/08/12 06:52:57;;;;;;;16.25;4.63;;;17.70;99.90;;;;;;4861018;29;20065;-52
2023/08/12 06:55:24;;;;;;;18.02;4.45;;;17.70;99.90;;;;;;4860661;29;20049;-52
2023/08/12 06:57:50;;;;;;;16.75;3.85;;;17.70;99.90;;;;;;4860409;29;20493;-52
2023/08/12 07:00:17;;;;;;;18.00;4.25;;;17.80;99.90;;;;;;4860847;29;20050;-52
2023/08/12 07:02:44;;;;;;;16.52;4.25;;;17.80;99.90;;;;;;4860702;29;20397;-56
2023/08/12 07:05:11;;;;;;;14.07;4.07;;;17.80;99.90;;;;;;4860739;29;20105;-51
2023/08/12 07:07:38;;;;;;;14.38;3.70;;;17.80;99.90;;;;;;4860831;29;20046;-55
2023/08/12 07:10:06;;;;;;;16.45;4.03;;;17.80;99.90;;;;;;4860568;29;20045;-52
2023/08/12 07:12:32;;;;;;;13.48;3.90;;;17.90;99.90;;;;;;4860883;29;20046;-52
2023/08/12 07:14:59;;;;;;;15.10;3.30;;;17.90;99.90;;;;;;4860701;29;20041;-53
2023/08/12 07:17:26;;;;;;;12.40;3.67;;;17.90;99.90;;;;;;4852465;29;20109;-54
2023/08/12 07:19:53;;;;;;;13.75;3.72;;;17.90;99.90;;;;;;4844744;29;20057;-54
2023/08/12 07:22:20;;;;;;;19.52;4.22;;;17.90;99.90;;;;;;4845689;29;20432;-52
2023/08/12 07:24:47;;;;;;;16.73;4.35;;;18.00;99.90;;;;;;4863935;29;20125;-52
2023/08/12 07:27:14;;;;;;;18.23;4.13;;;18.10;99.90;;;;;;4848909;29;20041;-52
2023/08/12 07:29:41;;;;;;;14.10;3.53;;;18.10;99.90;;;;;;4845941;29;20110;-55
2023/08/12 07:32:07;;;;;;;16.50;4.28;;;18.20;99.90;;;;;;4845045;29;20435;-55
2023/08/12 07:34:34;;;;;;;19.67;4.18;;;18.30;99.90;;;;;;4845549;29;20397;-53
2023/08/12 07:37:01;;;;;;;13.82;3.95;;;18.40;99.90;;;;;;4845295;29;20050;-55
2023/08/12 07:39:28;;;;;;;14.57;4.07;;;18.40;99.90;;;;;;4845234;29;20098;-54
2023/08/12 07:41:54;;;;;;;21.00;4.45;;;18.50;99.90;;;;;;4845124;29;20042;-53
2023/08/12 07:44:21;;;;;;;15.25;3.40;;;18.50;99.90;;;;;;4845188;29;20099;-51
2023/08/12 07:46:49;;;;;;;14.60;3.78;;;18.60;99.90;;;;;;4845079;29;20042;-52
2023/08/12 07:49:16;;;;;;;18.50;4.18;;;18.60;99.90;;;;;;4845103;29;20076;-53
2023/08/12 07:51:42;;;;;;;16.50;3.67;;;18.70;99.90;;;;;;4844955;29;20049;-52
2023/08/12 07:54:09;;;;;;;16.70;3.70;;;18.70;99.90;;;;;;4844805;29;20046;-52
2023/08/12 07:56:36;;;;;;;17.30;3.95;;;18.80;99.90;;;;;;4843974;29;20054;-55
2023/08/12 07:59:03;;;;;;;16.27;5.13;;;18.90;99.90;;;;;;4835759;29;20044;-54
2023/08/12 08:01:29;;;;;;;16.25;4.00;;;19.00;99.90;;;;;;4835340;29;21622;-54
2023/08/12 08:03:56;;;;;;;20.40;3.65;;;19.10;99.90;;;;;;4834435;29;20046;-52
2023/08/12 08:06:23;;;;;;;12.63;3.28;;;19.10;99.90;;;;;;4833862;29;20049;-52
2023/08/12 08:08:50;;;;;;;14.30;3.75;;;19.20;99.90;;;;;;4828523;29;20045;-55
2023/08/12 08:11:17;;;;;;;18.13;4.00;;;19.30;99.90;;;;;;4829831;29;20039;-52
2023/08/12 08:13:44;;;;;;;15.45;4.10;;;19.40;99.90;;;;;;4832792;29;20042;-55
2023/08/12 08:16:10;;;;;;;17.90;4.05;;;19.50;99.90;;;;;;4833101;29;20051;-51
2023/08/12 08:18:37;;;;;;;15.73;3.92;;;19.50;99.90;;;;;;4826646;29;20046;-52
2023/08/12 08:21:04;;;;;;;16.23;3.65;;;19.60;99.90;;;;;;4826141;29;20500;-56
2023/08/12 08:23:31;;;;;;;13.57;3.63;;;19.60;99.90;;;;;;4826107;29;20077;-56
2023/08/12 08:25:58;;;;;;;13.07;3.20;;;19.70;99.90;;;;;;4826301;29;20106;-53
2023/08/12 08:28:25;;;;;;;16.40;4.20;;;19.70;99.90;;;;;;4826438;29;20050;-52
2023/08/12 08:30:52;;;;;;;13.57;4.13;;;19.70;99.90;;;;;;4826091;29;20115;-55
2023/08/12 08:33:19;;;;;;;17.88;3.42;;;19.70;99.90;;;;;;4825939;29;20039;-49
2023/08/12 08:35:46;;;;;;;14.95;3.65;;;19.70;99.90;;;;;;4825855;29;20368;-48
2023/08/12 08:38:12;;;;;;;20.70;4.30;;;19.70;99.90;;;;;;4825091;29;20046;-54
2023/08/12 08:40:39;;;;;;;16.17;3.97;;;19.80;99.90;;;;;;4826064;29;20089;-52
2023/08/12 08:43:06;;;;;;;15.90;4.20;;;19.80;99.90;;;;;;4852428;29;20062;-54
2023/08/12 08:45:33;;;;;;;14.45;3.20;;;19.90;99.90;;;;;;4843766;29;20046;-53
2023/08/12 08:48:01;;;;;;;17.35;3.60;;;19.90;99.90;;;;;;4842973;29;20402;-56
2023/08/12 08:50:27;;;;;;;13.60;3.38;;;20.10;99.90;;;;;;4843675;29;20049;-53
2023/08/12 08:52:54;;;;;;;19.80;4.05;;;20.20;99.90;;;;;;4842874;29;20052;-56
2023/08/12 08:55:21;;;;;;;12.52;3.85;;;20.20;99.90;;;;;;4857628;29;20121;-53
2023/08/12 08:57:48;;;;;;;16.73;3.50;;;20.30;99.90;;;;;;4842620;29;20058;-55
2023/08/12 09:00:15;;;;;;;14.27;3.42;;;20.30;99.90;;;;;;4843427;29;20074;-56
2023/08/12 09:02:44;;;;;;;14.30;3.60;;;20.40;99.90;;;;;;4843523;29;20085;-56
2023/08/12 09:05:11;;;;;;;13.05;3.63;;;20.50;99.90;;;;;;4842984;29;20106;-55
2023/08/12 09:07:38;;;;;;;12.95;3.35;;;20.70;99.90;;;;;;4843271;29;20379;-57
2023/08/12 09:10:05;;;;;;;13.98;3.63;;;20.90;99.90;;;;;;4842990;29;20102;-53
2023/08/12 09:12:32;;;;;;;12.57;3.45;;;21.00;99.90;;;;;;4843445;29;20065;-56
2023/08/12 09:14:59;;;;;;;13.88;3.28;;;21.00;99.90;;;;;;4843289;29;20049;-56
2023/08/12 09:17:26;;;;;;;17.48;3.70;;;21.10;99.80;;;;;;4842629;29;20049;-57
2023/08/12 09:19:53;;;;;;;11.55;3.28;;;21.10;99.90;;;;;;4841883;29;20472;-56
2023/08/12 09:22:20;;;;;;;10.18;2.70;;;21.00;99.80;;;;;;4838852;29;20073;-55
2023/08/12 09:24:47;;;;;;;12.07;3.25;;;21.00;99.80;;;;;;4836294;29;20061;-55
2023/08/12 09:27:14;;;;;;;15.80;3.85;;;21.00;99.60;;;;;;4839782;29;20052;-57
2023/08/12 09:29:41;;;;;;;10.93;3.47;;;21.10;99.30;;;;;;4842941;29;20170;-57
2023/08/12 09:32:08;;;;;;;21.02;4.25;;;21.10;99.20;;;;;;4837797;29;20038;-56
2023/08/12 09:34:36;;;;;;;12.13;3.35;;;21.10;99.20;;;;;;4838757;29;20072;-54
2023/08/12 09:37:03;;;;;;;15.57;3.53;;;21.10;99.40;;;;;;4835548;29;20374;-51
2023/08/12 09:39:30;;;;;;;12.70;3.50;;;21.10;99.30;;;;;;4836752;29;20466;-56
2023/08/12 09:41:57;;;;;;;16.67;3.30;;;21.00;99.50;;;;;;4836200;29;20046;-56
2023/08/12 09:44:24;;;;;;;13.73;3.60;;;21.00;99.70;;;;;;4837786;29;20819;-56
2023/08/12 09:46:51;;;;;;;13.77;2.92;;;21.00;99.50;;;;;;4840859;29;20084;-54
2023/08/12 09:49:19;;;;;;;15.50;3.25;;;21.00;99.00;;;;;;4842103;29;20050;-55
2023/08/12 09:51:45;;;;;;;11.63;3.22;;;21.10;99.10;;;;;;4842455;29;20046;-52
2023/08/12 09:54:12;;;;;;;13.65;3.45;;;21.10;99.00;;;;;;4840725;29;20386;-55
2023/08/12 09:56:43;;;;;;;11.73;3.03;;;21.10;99.00;;;;;;4839507;29;20070;-55
2023/08/12 09:59:10;;;;;;;14.40;3.63;;;21.20;99.50;;;;;;4836372;29;20066;-52
2023/08/12 10:01:37;;;;;;;9.82;2.95;;;21.20;99.00;;;;;;4838162;29;20390;-54
2023/08/12 10:04:04;;;;;;;13.23;3.30;;;21.20;99.00;;;;;;4836043;29;20059;-51
2023/08/12 10:06:30;;;;;;;13.93;3.10;;;21.20;99.20;;;;;;4835596;29;20129;-57
2023/08/12 10:08:57;;;;;;;10.93;3.25;;;21.20;98.90;;;;;;4835114;29;20041;-54
2023/08/12 10:11:24;;;;;;;13.20;2.97;;;21.20;98.90;;;;;;4836489;29;20066;-56
2023/08/12 10:13:51;;;;;;;13.50;3.05;;;21.30;99.20;;;;;;4849210;29;20121;-57
2023/08/12 10:16:18;;;;;;;13.75;3.63;;;21.40;97.90;;;;;;4837249;29;20122;-56
2023/08/12 10:18:45;;;;;;;10.90;3.00;;;21.50;97.60;;;;;;4842050;29;20050;-56
2023/08/12 10:21:13;;;;;;;12.88;3.25;;;21.60;97.50;;;;;;4835287;29;20045;-57
2023/08/12 10:23:40;;;;;;;12.63;2.97;;;21.60;97.40;;;;;;4835647;29;20570;-54
2023/08/12 10:26:07;;;;;;;11.95;3.70;;;21.80;98.00;;;;;;4834680;29;20122;-55
2023/08/12 10:28:36;;;;;;;13.63;3.10;;;21.90;97.60;;;;;;4836347;29;20070;-55
2023/08/12 10:31:04;;;;;;;12.98;3.10;;;21.90;97.50;;;;;;4837764;29;20060;-57
2023/08/12 10:33:31;;;;;;;12.32;3.38;;;22.00;97.60;;;;;;4836465;29;20046;-53
2023/08/12 10:35:58;;;;;;;13.43;3.35;;;22.10;97.80;;;;;;4830410;29;20510;-55
2023/08/12 10:38:25;;;;;;;15.68;3.47;;;22.20;96.90;;;;;;4848388;29;20466;-54
2023/08/12 10:40:52;;;;;;;12.82;3.80;;;22.20;96.60;;;;;;4836671;29;20077;-55
2023/08/12 10:43:19;;;;;;;15.73;4.03;;;22.30;96.90;;;;;;4834956;29;20375;-56
2023/08/12 10:45:46;;;;;;;16.80;3.17;;;22.40;96.90;;;;;;4835428;29;20038;-55
2023/08/12 10:48:12;;;;;;;13.30;3.25;;;22.50;96.70;;;;;;4836738;29;20046;-55
2023/08/12 10:50:39;;;;;;;13.18;3.05;;;22.60;96.20;;;;;;4834717;29;20035;-56
2023/08/12 10:53:06;;;;;;;11.00;3.10;;;22.50;95.90;;;;;;4841073;29;20057;-56
2023/08/12 10:55:33;;;;;;;15.23;3.35;;;22.50;96.30;;;;;;4844578;29;20128;-56
2023/08/12 10:58:00;;;;;;;16.38;2.95;;;22.40;96.10;;;;;;4843245;29;20065;-55
2023/08/12 11:00:26;;;;;;;17.50;3.65;;;22.30;96.20;;;;;;4845607;29;20128;-57
2023/08/12 11:02:53;;;;;;;16.15;3.33;;;22.30;96.50;;;;;;4844962;29;20383;-57
2023/08/12 11:05:20;;;;;;;11.50;3.40;;;22.30;96.90;;;;;;4845015;29;20125;-57
2023/08/12 11:07:49;;;;;;;14.45;3.70;;;22.50;96.50;;;;;;4859189;29;20402;-56
2023/08/12 11:10:16;;;;;;;16.75;3.20;;;22.70;96.70;;;;;;4858687;29;20060;-55
2023/08/12 11:12:43;;;;;;;9.32;3.20;;;22.90;96.30;;;;;;4845011;29;20046;-53
2023/08/12 11:15:10;;;;;;;12.93;3.28;;;23.00;95.90;;;;;;4844611;29;20042;-54
2023/08/12 11:17:37;;;;;;;15.85;3.95;;;23.10;95.70;;;;;;4845104;29;20070;-53
2023/08/12 11:20:04;;;;;;;15.27;3.58;;;23.10;95.90;;;;;;4844811;29;20069;-56
2023/08/12 11:22:31;;;;;;;11.38;3.38;;;23.00;96.00;;;;;;4843825;29;20057;-56
2023/08/12 11:24:58;;;;;;;13.80;3.50;;;23.10;96.40;;;;;;4845218;29;20506;-54
2023/08/12 11:27:25;;;;;;;11.52;3.78;;;23.10;96.10;;;;;;4845114;29;20103;-55
2023/08/12 11:29:52;;;;;;;12.60;3.30;;;23.10;96.10;;;;;;4859217;29;20083;-55
2023/08/12 11:32:18;;;;;;;13.38;3.22;;;23.20;95.80;;;;;;4858700;29;20483;-56
2023/08/12 11:34:45;;;;;;;9.93;3.40;;;23.30;96.00;;;;;;4845026;29;20053;-56
2023/08/12 11:37:12;;;;;;;12.43;3.40;;;23.40;95.80;;;;;;4844792;29;20133;-53
2023/08/12 11:39:39;;;;;;;15.18;3.72;;;23.30;95.70;;;;;;4844614;29;20095;-51
2023/08/12 11:42:07;;;;;;;13.10;3.78;;;23.30;96.50;;;;;;4844904;29;20053;-54
2023/08/12 11:44:34;;;;;;;12.52;3.60;;;23.20;96.30;;;;;;4844218;29;20413;-55
2023/08/12 11:47:01;;;;;;;13.93;3.47;;;23.10;96.40;;;;;;4844549;29;20137;-55
2023/08/12 11:49:28;;;;;;;16.77;3.35;;;22.90;96.50;;;;;;4844724;29;20041;-53
2023/08/12 11:51:55;;;;;;;12.18;3.20;;;22.90;96.70;;;;;;4844427;29;20070;-54
2023/08/12 11:54:22;;;;;;;12.10;3.00;;;22.80;97.10;;;;;;4844392;29;20133;-56
2023/08/12 11:56:49;;;;;;;9.32;2.95;;;22.70;97.60;;;;;;4844127;29;20050;-53
2023/08/12 11:59:16;;;;;;;10.60;2.92;;;22.60;97.50;;;;;;4844267;29;20122;-50
2023/08/12 12:01:45;;;;;;;9.70;2.67;;;22.50;97.50;;;;;;4841012;29;20050;-51
2023/08/12 12:04:12;;;;;;;12.02;2.70;;;22.40;97.80;;;;;;4839779;29;20037;-56
2023/08/12 12:06:39;;;;;;;7.97;2.45;;;22.30;97.80;;;;;;4836907;29;20057;-51
2023/08/12 12:09:09;;;;;;;10.73;2.35;;;22.30;98.40;;;;;;4839648;29;20038;-51
2023/08/12 12:11:39;;;;;;;9.10;2.47;;;22.40;98.80;;;;;;4856595;29;20053;-53
2023/08/12 12:14:06;;;;;;;7.85;2.50;;;22.50;98.70;;;;;;4843651;29;20065;-55
2023/08/12 12:16:33;;;;;;;10.80;2.38;;;22.60;98.60;;;;;;4844042;29;20042;-58
2023/08/12 12:19:05;;;;;;;9.52;2.55;;;22.80;98.50;;;;;;4841942;29;20495;-54
2023/08/12 12:21:32;;;;;;;8.95;2.72;;;22.80;98.60;;;;;;4843058;29;20110;-61
2023/08/12 12:23:59;;;;;;;9.25;2.53;;;22.80;98.50;;;;;;4841217;29;20141;-57
2023/08/12 12:26:26;;;;;;;10.82;2.72;;;22.90;98.40;;;;;;4835933;29;20052;-56
2023/08/12 12:28:53;;;;;;;12.40;2.40;;;23.10;97.90;;;;;;4837644;29;20491;-57
2023/08/12 12:31:23;;;;;;;8.63;2.30;;;23.30;97.50;;;;;;4833029;29;20088;-58
2023/08/12 12:33:50;;;;;;;10.80;2.90;;;23.40;97.50;;;;;;4836160;29;20125;-56
2023/08/12 12:36:17;;;;;;;9.50;2.50;;;23.40;97.40;;;;;;4842644;29;20042;-56